Celeryville, Ohio
Current Conditions -  °F | °C
As of 3:52 PM on Monday 24 Nov 2014 (Local Time) from KMFD Reporting Station
Broken Clouds Broken Clouds  
Wind Chill: 38°   Ceiling: 3000
Heat Index: 46°   Visibility: 10mi
Dew Point: 36°   Wind: 24mph
Humidity: 68%   Direction: 230°SW
Pressure: 29.55"   Gusts: 39mph
Location:  41.0768°N, 82.7214°W
Report Text: KMFD 242052Z 23021G34KT 10SM FEW024 BKN030 BKN036 08/02 A2955 RMK AO2 PK WND 25039/2017 SLP007 T00780022 51046
Loading
Personal Weather Stations






























Interactive Weather Map New forecast layout! Learn more

10-Day Weather Forecast

Advertisements
Track Severe Weather on mobile